OIAG  Aghajari  Airport

Aghajari,, Iran

Add Bookmark
ICAO OIAG
Type Airport
Status Operational
Latitude
30° 44' 39" N
30.744400
Longitude
49° 40' 37" E
49.677200
Local (DST + 5) UTC (GMT + 4)
Apr 18, 2015 09:20 Apr 18, 2015 04:50
Sunrise-Sunset Local UTC
Begin Civil Twilight 06:14 01:44
Sunrise 06:39 02:09
Sunset 07:42 15:12
End Civil Twilight 08:07 15:37
VFR
VFR
MVFR
MVFR
IFR
VFR
LIFR
VFR
Unknown
Unavailable

Current Weather

METAR Observed VFR
OIAG 180400Z 30006KT 9999 FEW035CB SCT040 23/07 Q1014 Sat, Apr 18, 2015 @ 04:00 UTC
(50 Minutes ago)
Visual Flight Rules
Wind Visibility Clouds Conditions
300° at 6 knots (11 kph) 10 km or more
  • Few at 3,500 ft AGL
  • Scattered at 4,000 ft AGL
  • No significant weather
Temperatures Readings Precipitation
Current Temp
23°C
73°F
Dewpoint
7°C
45°F
Humidity 36%
Altimeter 29.94" Hg
Sea Level Pressure 1,014 mb
Field Elevation
29 m
95 ft
None Recorded

Additional weather within a 92.6km radius of OIAG

Map ICAO Location
OIAM 54.4km W/SW (248°)
VFR
VFR
MVFR
MVFR
IFR
VFR
LIFR
VFR
Unknown
Unavailable
-
-

CheckWX.com is intended as a tool to help pilots better visualize weather data. It is not intended as a substitute for an official weather briefing obtained from a Flight Service Station. CheckWX.com does not meet the FAA requirements for an official pre-flight weather briefing. Therefore, it's important that pilots still call and obtain an official FSS pre-flight weather briefing.

© 2007-2015 CheckWX.com
04:50:21 UTC